Time;durP1;ratioP1;P1;durP2;ratioP2;P2;SDS_P1;SDS_P2;PMS_P1;PMS_P2;Temp;Humidity;BMP_temperature;BMP_pressure;BME280_temperature;BME280_humidity;BME280_pressure;Samples;Min_cycle;Max_cycle;Signal;HPM_P1;HPM_P2
2021/09/21 00:02:23;;;;;;;10.60;6.43;;;;;;;11.00;100.00;101754.69;5107745;28;20090;-78
2021/09/21 00:04:50;;;;;;;10.90;6.72;;;;;;;11.05;100.00;101747.44;5099695;28;20051;-79
2021/09/21 00:07:17;;;;;;;17.55;6.80;;;;;;;11.03;100.00;101751.06;5087606;28;20143;-79
2021/09/21 00:09:46;;;;;;;7.93;6.13;;;;;;;11.04;100.00;101750.16;5106503;27;20104;-79
2021/09/21 00:12:13;;;;;;;19.38;7.70;;;;;;;11.04;100.00;101756.28;5105490;27;20506;-79
2021/09/21 00:14:40;;;;;;;8.65;6.53;;;;;;;11.08;100.00;101767.56;5107274;27;20419;-79
2021/09/21 00:17:07;;;;;;;10.68;6.53;;;;;;;11.12;100.00;101758.56;5082164;28;20090;-79
2021/09/21 00:19:35;;;;;;;9.60;5.82;;;;;;;11.09;100.00;101770.09;5071072;28;20656;-79
2021/09/21 00:22:03;;;;;;;10.13;5.85;;;;;;;11.08;100.00;101765.78;5062463;28;20047;-78
2021/09/21 00:24:30;;;;;;;10.88;6.75;;;;;;;11.08;100.00;101760.50;5064181;28;20063;-78
2021/09/21 00:26:58;;;;;;;8.45;6.15;;;;;;;11.04;100.00;101756.28;5084681;28;20052;-78
2021/09/21 00:29:25;;;;;;;11.95;6.47;;;;;;;11.05;100.00;101754.50;5083588;28;20143;-79
2021/09/21 00:32:00;;;;;;;8.13;6.05;;;;;;;11.03;100.00;101762.47;5108080;27;20036;-78
2021/09/21 00:34:37;;;;;;;15.18;6.28;;;;;;;11.11;100.00;101759.50;5100666;27;20379;-78
2021/09/21 00:37:08;;;;;;;10.77;6.45;;;;;;;11.09;100.00;101761.34;5100716;28;20044;-79
2021/09/21 00:39:35;;;;;;;10.98;6.00;;;;;;;11.05;100.00;101755.34;5084172;27;20051;-77
2021/09/21 00:42:03;;;;;;;8.35;5.60;;;;;;;11.08;100.00;101751.75;5064195;28;20043;-78
2021/09/21 00:44:30;;;;;;;9.93;5.88;;;;;;;11.06;100.00;101745.66;5084097;28;20379;-79
2021/09/21 00:46:58;;;;;;;9.55;5.40;;;;;;;11.02;100.00;101744.06;5088954;28;20051;-79
2021/09/21 00:49:25;;;;;;;6.45;5.65;;;;;;;11.17;100.00;101746.06;5079725;28;20048;-80
2021/09/21 00:51:53;;;;;;;8.35;5.75;;;;;;;11.25;100.00;101743.94;5057293;28;20044;-78
2021/09/21 00:54:21;;;;;;;9.68;6.43;;;;;;;11.27;100.00;101744.75;5078862;28;20072;-79
2021/09/21 00:56:48;;;;;;;8.55;6.00;;;;;;;11.23;100.00;101742.31;5070412;28;20047;-78
2021/09/21 00:59:15;;;;;;;14.73;6.13;;;;;;;11.37;100.00;101753.94;5062164;28;20143;-79
2021/09/21 01:01:42;;;;;;;10.50;6.38;;;;;;;11.27;100.00;101746.53;5109389;27;20106;-79
2021/09/21 01:04:10;;;;;;;8.10;5.60;;;;;;;11.29;100.00;101756.06;5085194;28;20154;-79
2021/09/21 01:06:37;;;;;;;8.35;5.53;;;;;;;11.18;100.00;101758.31;5070564;28;20044;-78
2021/09/21 01:09:04;;;;;;;9.30;5.55;;;;;;;11.13;100.00;101761.16;5072997;28;20072;-79
2021/09/21 01:11:32;;;;;;;9.48;5.97;;;;;;;11.13;100.00;101757.66;5080516;27;20138;-79
2021/09/21 01:13:59;;;;;;;10.13;6.25;;;;;;;11.10;100.00;101755.16;5077477;28;20071;-79
2021/09/21 01:16:26;;;;;;;12.27;6.45;;;;;;;11.08;100.00;101760.50;5082691;27;20043;-79
2021/09/21 01:18:54;;;;;;;9.00;5.93;;;;;;;11.20;100.00;101760.88;5078841;28;20093;-80
2021/09/21 01:21:23;;;;;;;10.57;6.00;;;;;;;11.13;100.00;101761.16;5106170;27;20150;-80
2021/09/21 01:23:55;;;;;;;9.07;5.90;;;;;;;11.13;100.00;101761.16;5079048;28;20059;-79
2021/09/21 01:26:23;;;;;;;12.55;6.60;;;;;;;11.05;100.00;101763.25;5086661;28;20063;-79
2021/09/21 01:28:51;;;;;;;9.88;6.35;;;;;;;11.04;100.00;101758.91;5066617;28;20121;-79
2021/09/21 01:31:19;;;;;;;10.63;6.10;;;;;;;11.10;100.00;101763.06;5080934;28;20402;-79
2021/09/21 01:33:48;;;;;;;12.30;6.20;;;;;;;11.04;100.00;101764.19;5085514;28;20123;-79
2021/09/21 01:36:16;;;;;;;13.05;6.53;;;;;;;11.04;100.00;101779.16;5068630;28;20071;-79
2021/09/21 01:38:43;;;;;;;9.50;5.65;;;;;;;11.01;100.00;101777.47;5084900;28;20055;-79
2021/09/21 01:41:10;;;;;;;8.68;6.40;;;;;;;11.01;100.00;101779.25;5079903;28;20159;-77
2021/09/21 01:43:40;;;;;;;9.85;5.88;;;;;;;10.99;100.00;101771.44;5104209;27;20061;-79
2021/09/21 01:46:07;;;;;;;10.95;6.70;;;;;;;10.91;100.00;101778.78;5083905;27;20138;-78
2021/09/21 01:48:35;;;;;;;10.38;6.05;;;;;;;10.86;100.00;101784.25;5082159;28;20120;-77
2021/09/21 01:51:05;;;;;;;9.43;6.03;;;;;;;10.84;100.00;101774.69;5068206;28;20075;-79
2021/09/21 01:53:49;;;;;;;12.95;6.07;;;;;;;10.98;100.00;101779.38;5087833;28;20158;-78
2021/09/21 01:59:02;;;;;;;8.70;6.18;;;;;;;10.88;100.00;101766.59;5079952;28;20051;-78
2021/09/21 02:01:29;;;;;;;9.00;5.93;;;;;;;10.86;100.00;101762.31;5110600;27;20041;-79
2021/09/21 02:04:00;;;;;;;8.80;5.68;;;;;;;10.85;100.00;101761.47;5068302;28;20127;-79
2021/09/21 02:06:49;;;;;;;10.35;5.50;;;;;;;10.82;100.00;101761.59;5105999;27;20623;-78
2021/09/21 02:09:15;;;;;;;8.57;5.32;;;;;;;10.82;100.00;101763.38;5080657;28;20055;-79
2021/09/21 02:11:43;;;;;;;9.82;5.55;;;;;;;10.93;100.00;101758.50;5068096;28;20126;-79
2021/09/21 02:14:13;;;;;;;9.98;5.55;;;;;;;10.95;100.00;101767.22;5082918;28;20122;-78
2021/09/21 02:16:45;;;;;;;13.82;5.68;;;;;;;10.85;100.00;101758.84;5082000;27;20056;-79
2021/09/21 02:19:12;;;;;;;9.88;5.85;;;;;;;10.85;100.00;101755.31;5101696;27;21691;-80
2021/09/21 02:21:39;;;;;;;7.90;5.45;;;;;;;10.88;100.00;101763.97;5051719;28;20135;-79
2021/09/21 02:24:07;;;;;;;7.65;5.28;;;;;;;10.83;100.00;101763.31;5083650;28;20492;-79
2021/09/21 02:26:34;;;;;;;9.30;5.50;;;;;;;10.85;100.00;101760.59;5072841;27;20071;-80
2021/09/21 02:29:01;;;;;;;7.72;5.45;;;;;;;10.77;100.00;101763.56;5070625;27;20665;-81
2021/09/21 02:31:28;;;;;;;10.15;5.57;;;;;;;10.79;100.00;101769.63;5060894;28;20052;-79
2021/09/21 02:33:56;;;;;;;11.15;5.75;;;;;;;10.82;100.00;101763.38;5068949;28;20052;-79
2021/09/21 02:36:23;;;;;;;8.30;5.95;;;;;;;10.85;100.00;101773.75;5102243;27;20514;-79
2021/09/21 02:38:50;;;;;;;7.15;5.60;;;;;;;10.93;100.00;101770.81;5086787;28;20490;-79
2021/09/21 02:41:17;;;;;;;10.52;6.13;;;;;;;11.02;100.00;101758.09;5100439;28;20116;-78
2021/09/21 02:43:44;;;;;;;8.02;6.03;;;;;;;10.84;100.00;101756.25;5081878;28;20127;-78
2021/09/21 02:46:11;;;;;;;9.40;5.30;;;;;;;10.82;100.00;101764.22;5102424;28;20120;-79
2021/09/21 02:48:39;;;;;;;10.52;6.30;;;;;;;10.79;100.00;101760.84;5069814;27;20067;-79
2021/09/21 02:51:06;;;;;;;10.60;5.85;;;;;;;10.81;100.00;101761.66;5083705;28;20305;-79
2021/09/21 02:53:33;;;;;;;9.77;5.60;;;;;;;10.88;100.00;101760.47;5083762;28;20047;-79
2021/09/21 02:56:01;;;;;;;8.32;6.05;;;;;;;10.87;100.00;101758.78;5062699;28;21585;-79
2021/09/21 02:58:28;;;;;;;11.38;6.32;;;;;;;10.83;100.00;101771.19;5101637;27;20055;-79
2021/09/21 03:00:57;;;;;;;10.43;6.53;;;;;;;10.78;100.00;101775.81;5087412;28;20051;-79
2021/09/21 03:03:29;;;;;;;11.43;5.72;;;;;;;10.82;100.00;101777.41;5053867;28;20060;-78
2021/09/21 03:06:06;;;;;;;7.88;5.93;;;;;;;10.75;100.00;101780.34;5072278;28;20051;-78
2021/09/21 03:08:35;;;;;;;10.23;5.80;;;;;;;10.79;100.00;101782.78;5102671;28;20098;-79
2021/09/21 03:11:17;;;;;;;12.18;5.65;;;;;;;10.79;100.00;101782.78;5104648;28;20140;-80
2021/09/21 03:19:06;;;;;;;;;;;;;;;10.83;100.00;101797.53;5063360;28;20525;-79
2021/09/21 03:21:34;;;;;;;8.77;5.10;;;;;;;10.81;100.00;101796.75;5066943;28;19926;-80
2021/09/21 03:24:01;;;;;;;9.10;4.88;;;;;;;10.81;100.00;101795.91;5080230;28;20075;-80
2021/09/21 03:26:28;;;;;;;9.35;5.65;;;;;;;10.81;100.00;101790.66;5087020;28;20056;-79
2021/09/21 03:28:55;;;;;;;8.73;5.15;;;;;;;10.87;100.00;101785.09;5083093;28;20142;-78
2021/09/21 03:31:22;;;;;;;8.45;5.88;;;;;;;10.85;100.00;101793.09;5081000;28;20525;-77
2021/09/21 03:33:50;;;;;;;12.75;7.70;;;;;;;10.80;100.00;101788.91;5097620;28;20052;-79
2021/09/21 03:36:18;;;;;;;14.65;5.80;;;;;;;10.85;100.00;101794.84;5072197;28;20048;-78
2021/09/21 03:38:45;;;;;;;8.18;5.85;;;;;;;10.80;100.00;101799.44;5084131;28;20083;-79
2021/09/21 03:41:12;;;;;;;12.68;5.88;;;;;;;10.85;100.00;101795.72;5076821;28;20058;-78
2021/09/21 03:43:40;;;;;;;10.30;7.00;;;;;;;10.86;100.00;101804.47;5069509;27;20079;-79
2021/09/21 03:46:07;;;;;;;11.07;6.53;;;;;;;10.85;100.00;101795.72;5070664;28;20125;-79
2021/09/21 03:48:35;;;;;;;11.95;6.00;;;;;;;10.86;100.00;101797.44;5062378;28;20139;-78
2021/09/21 03:51:02;;;;;;;6.30;5.40;;;;;;;10.86;100.00;101801.84;5105887;27;20054;-79
2021/09/21 03:53:29;;;;;;;12.25;6.57;;;;;;;10.88;100.00;101798.22;5104942;27;20158;-79
2021/09/21 03:55:56;;;;;;;8.25;5.80;;;;;;;10.94;100.00;101807.63;5049856;28;20050;-77
2021/09/21 03:58:24;;;;;;;13.93;6.38;;;;;;;10.98;100.00;101805.72;5105255;27;20555;-78
2021/09/21 04:00:51;;;;;;;7.82;6.05;;;;;;;10.90;100.00;101808.69;5049125;28;20082;-79
2021/09/21 04:03:18;;;;;;;10.00;5.30;;;;;;;10.98;100.00;101803.09;5084228;28;20494;-79
2021/09/21 04:05:45;;;;;;;9.60;5.75;;;;;;;10.91;100.00;101807.78;5086659;27;20058;-79
2021/09/21 04:08:13;;;;;;;10.10;7.40;;;;;;;10.81;100.00;101796.75;5081811;28;20079;-79
2021/09/21 04:10:40;;;;;;;9.85;6.10;;;;;;;10.76;100.00;101796.09;5050988;28;20128;-80
2021/09/21 04:13:07;;;;;;;6.75;5.43;;;;;;;10.81;100.00;101796.75;5085933;28;20070;-80
2021/09/21 04:15:35;;;;;;;7.68;6.32;;;;;;;10.73;100.00;101800.63;5101593;27;20160;-79
2021/09/21 04:18:08;;;;;;;9.10;5.80;;;;;;;10.61;100.00;101791.44;5106005;28;20094;-79
2021/09/21 04:20:35;;;;;;;10.05;5.65;;;;;;;10.71;100.00;101799.81;5080268;28;20130;-79
2021/09/21 04:23:03;;;;;;;11.35;6.95;;;;;;;10.61;100.00;101804.59;5087296;28;20150;-80
2021/09/21 04:25:31;;;;;;;8.07;6.13;;;;;;;10.57;100.00;101810.91;5102103;27;20118;-78
2021/09/21 04:27:58;;;;;;;12.13;7.05;;;;;;;10.53;100.00;101812.81;5067143;28;20083;-79
2021/09/21 04:30:26;;;;;;;10.20;6.55;;;;;;;10.50;100.00;101806.81;5091758;28;20062;-80
2021/09/21 04:32:53;;;;;;;10.57;6.78;;;;;;;10.49;100.00;101821.78;5067925;28;20047;-79
2021/09/21 04:35:20;;;;;;;7.07;6.15;;;;;;;10.51;100.00;101829.59;5081089;28;20031;-80
2021/09/21 04:37:48;;;;;;;14.00;7.07;;;;;;;10.47;100.00;101828.84;5087423;28;20200;-79
2021/09/21 04:40:15;;;;;;;10.05;6.78;;;;;;;10.46;100.00;101821.88;5076495;28;20056;-80
2021/09/21 04:42:43;;;;;;;9.10;6.32;;;;;;;10.61;100.00;101826.53;5106780;27;20064;-80
2021/09/21 04:45:10;;;;;;;11.55;6.30;;;;;;;10.56;100.00;101825.00;5084044;28;20054;-77
2021/09/21 04:47:38;;;;;;;10.48;6.68;;;;;;;10.54;100.00;101832.13;5100408;28;20060;-78
2021/09/21 04:50:05;;;;;;;9.32;5.90;;;;;;;10.53;100.00;101833.88;5087222;28;20122;-79
2021/09/21 04:52:33;;;;;;;14.07;7.05;;;;;;;10.63;100.00;101835.25;5106667;28;20047;-83
2021/09/21 04:55:07;;;;;;;8.98;6.53;;;;;;;10.74;100.00;101836.59;5057417;28;20121;-82
2021/09/21 04:57:35;;;;;;;9.27;6.40;;;;;;;10.77;100.00;101841.72;5095411;27;20040;-84
2021/09/21 05:00:06;;;;;;;13.35;7.32;;;;;;;10.75;100.00;101836.50;5096207;27;20051;-83
2021/09/21 05:02:33;;;;;;;11.02;7.28;;;;;;;10.69;100.00;101844.66;5086537;28;20143;-84
2021/09/21 05:05:03;;;;;;;9.98;6.15;;;;;;;10.70;100.00;101843.75;5103574;27;20051;-84
2021/09/21 05:07:31;;;;;;;12.82;6.88;;;;;;;10.90;100.00;101846.44;5092209;28;20152;-84
2021/09/21 05:09:58;;;;;;;10.70;6.03;;;;;;;10.93;100.00;101844.59;5088427;28;20074;-83
2021/09/21 05:12:30;;;;;;;8.43;6.53;;;;;;;10.98;100.00;101846.09;5102431;27;20047;-79
2021/09/21 05:15:00;;;;;;;14.27;6.53;;;;;;;11.00;100.00;101848.69;5083164;28;20108;-79
2021/09/21 05:17:28;;;;;;;10.05;6.30;;;;;;;10.95;100.00;101851.53;5109877;27;20122;-81
2021/09/21 05:19:55;;;;;;;12.52;6.68;;;;;;;10.97;100.00;101857.56;5088642;28;20061;-81
2021/09/21 05:22:23;;;;;;;14.18;6.30;;;;;;;11.03;100.00;101862.63;5076337;28;20572;-77
2021/09/21 05:24:53;;;;;;;14.95;6.65;;;;;;;10.96;100.00;101852.38;5083719;27;20074;-79
2021/09/21 05:27:20;;;;;;;8.48;6.38;;;;;;;11.04;100.00;101853.78;5100953;28;20062;-81
2021/09/21 05:29:48;;;;;;;11.32;6.68;;;;;;;11.19;100.00;101854.91;5062682;28;20044;-80
2021/09/21 05:32:18;;;;;;;10.00;6.47;;;;;;;11.22;100.00;101846.03;5101066;27;20453;-79
2021/09/21 05:34:46;;;;;;;14.52;7.20;;;;;;;11.28;100.00;101857.16;5050780;28;20175;-81
2021/09/21 05:37:13;;;;;;;22.45;7.53;;;;;;;11.49;100.00;101857.19;5074739;28;20097;-81
2021/09/21 05:39:40;;;;;;;16.10;7.25;;;;;;;11.47;100.00;101856.38;5069193;28;20043;-81
2021/09/21 05:42:08;;;;;;;9.77;6.18;;;;;;;11.55;100.00;101857.75;5112920;27;20156;-81
2021/09/21 05:44:35;;;;;;;11.93;7.68;;;;;;;11.48;100.00;101856.28;5082850;28;20120;-79
2021/09/21 05:47:03;;;;;;;13.23;6.90;;;;;;;11.73;100.00;101860.53;5104416;27;20051;-80
2021/09/21 05:49:32;;;;;;;12.05;7.20;;;;;;;11.73;100.00;101871.06;5061078;28;20055;-81
2021/09/21 05:51:59;;;;;;;11.27;7.20;;;;;;;11.82;100.00;101874.19;5074478;27;20162;-80
2021/09/21 05:54:26;;;;;;;12.98;6.85;;;;;;;11.82;100.00;101875.94;5065186;28;20126;-79
2021/09/21 05:56:54;;;;;;;16.77;7.18;;;;;;;11.91;100.00;101870.28;5090851;27;20039;-79
2021/09/21 05:59:21;;;;;;;11.77;6.25;;;;;;;12.07;100.00;101866.06;5101680;28;20502;-82
2021/09/21 06:01:48;;;;;;;12.57;6.97;;;;;;;12.32;100.00;101849.06;5087883;28;20100;-80
2021/09/21 06:04:16;;;;;;;11.88;6.63;;;;;;;12.16;99.50;101864.78;5070016;28;21818;-80
2021/09/21 06:06:43;;;;;;;10.88;6.30;;;;;;;12.20;99.07;101868.09;5071618;27;20056;-80
2021/09/21 06:09:11;;;;;;;10.02;5.95;;;;;;;12.16;99.71;101870.91;5084861;27;20115;-80
2021/09/21 06:11:38;;;;;;;8.23;5.53;;;;;;;12.32;97.76;101878.13;5067324;28;20394;-81
2021/09/21 06:14:05;;;;;;;13.93;5.70;;;;;;;12.18;98.40;101886.66;5085524;27;20047;-81
2021/09/21 06:16:32;;;;;;;17.35;7.18;;;;;;;12.30;97.37;101893.19;5064633;28;20127;-81
2021/09/21 06:19:01;;;;;;;14.52;6.22;;;;;;;12.40;95.89;101899.75;5081624;28;20052;-77
2021/09/21 06:21:28;;;;;;;13.07;5.82;;;;;;;12.46;96.82;101895.97;5102999;28;20056;-75
2021/09/21 06:23:55;;;;;;;17.20;7.18;;;;;;;12.62;95.04;101896.97;5069600;27;20465;-75
2021/09/21 06:26:23;;;;;;;11.60;5.57;;;;;;;12.78;93.85;101892.66;5094644;27;20112;-76
2021/09/21 06:28:50;;;;;;;10.77;6.00;;;;;;;12.57;92.74;101893.69;5078497;28;20073;-76
2021/09/21 06:31:18;;;;;;;11.38;5.53;;;;;;;12.66;92.79;101901.19;5050107;28;20048;-77
2021/09/21 06:33:45;;;;;;;11.40;5.50;;;;;;;12.72;91.61;101905.31;5102634;27;20142;-78
2021/09/21 06:36:13;;;;;;;10.25;6.18;;;;;;;12.86;91.04;101900.22;5084575;28;20046;-75
2021/09/21 06:38:40;;;;;;;10.00;5.43;;;;;;;12.96;90.12;101903.25;5100574;27;20474;-75
2021/09/21 06:41:09;;;;;;;13.52;5.47;;;;;;;13.39;88.74;101909.97;5085169;27;20050;-75
2021/09/21 06:43:36;;;;;;;9.85;6.35;;;;;;;13.47;86.91;101917.53;5085276;28;20124;-76
2021/09/21 06:46:03;;;;;;;10.57;5.82;;;;;;;13.67;85.04;101917.38;5099020;28;20490;-76
2021/09/21 06:48:39;;;;;;;8.18;5.53;;;;;;;13.52;84.44;101926.94;5078919;28;20054;-76
2021/09/21 06:51:07;;;;;;;10.90;5.35;;;;;;;13.23;84.57;101923.09;5071669;28;20472;-74
2021/09/21 06:53:35;;;;;;;9.73;5.45;;;;;;;13.04;85.62;101927.53;5103747;27;20043;-76
2021/09/21 06:56:02;;;;;;;10.05;5.15;;;;;;;12.89;86.80;101935.28;5067496;28;20160;-75
2021/09/21 06:58:30;;;;;;;8.07;5.25;;;;;;;13.21;85.14;101926.72;5078943;28;20135;-76
2021/09/21 07:00:57;;;;;;;9.18;5.22;;;;;;;13.29;85.06;101937.81;5064303;28;20467;-76
2021/09/21 07:03:25;;;;;;;9.20;5.35;;;;;;;13.62;84.82;101930.84;5064297;28;20191;-77
2021/09/21 07:05:57;;;;;;;9.35;5.75;;;;;;;14.17;82.29;101938.53;5082138;28;20439;-77
2021/09/21 07:08:25;;;;;;;10.15;5.07;;;;;;;14.50;79.85;101920.94;5102028;28;20146;-75
2021/09/21 07:10:53;;;;;;;11.55;5.25;;;;;;;14.42;78.53;101922.22;5070711;28;20046;-75
2021/09/21 07:13:20;;;;;;;5.90;4.88;;;;;;;14.17;77.49;101930.59;5078532;28;20959;-76
2021/09/21 07:15:47;;;;;;;8.85;5.40;;;;;;;14.64;75.56;101923.72;5098232;28;20031;-77
2021/09/21 07:18:14;;;;;;;7.28;4.50;;;;;;;14.21;75.51;101927.81;5095078;28;20130;-76
2021/09/21 07:20:42;;;;;;;9.32;4.60;;;;;;;14.19;75.12;101944.63;5096594;28;20135;-76
2021/09/21 07:23:09;;;;;;;11.25;5.40;;;;;;;14.15;75.82;101942.22;5085474;28;20418;-76
2021/09/21 07:25:36;;;;;;;11.30;4.85;;;;;;;14.25;76.01;101935.50;5062463;28;20075;-77
2021/09/21 07:28:03;;;;;;;22.10;5.38;;;;;;;14.26;76.72;101931.06;5056144;28;20055;-77
2021/09/21 07:30:31;;;;;;;12.07;5.28;;;;;;;14.45;75.42;101931.75;5063731;28;20416;-76
2021/09/21 07:32:59;;;;;;;12.15;4.50;;;;;;;14.76;75.12;101932.78;5081083;28;20059;-75
2021/09/21 07:35:26;;;;;;;11.75;5.05;;;;;;;15.21;71.86;101931.97;5092101;28;20173;-76
2021/09/21 07:37:54;;;;;;;7.93;4.90;;;;;;;15.12;71.81;101936.00;5084341;28;20468;-75
2021/09/21 07:40:21;;;;;;;6.95;4.65;;;;;;;16.39;66.98;101928.44;5089739;28;20058;-78
2021/09/21 07:42:49;;;;;;;8.10;4.50;;;;;;;17.07;63.49;101935.63;5074831;28;20130;-77
2021/09/21 07:45:16;;;;;;;10.65;4.47;;;;;;;17.11;62.52;101934.47;5059078;28;20391;-75
2021/09/21 07:47:44;;;;;;;16.60;6.18;;;;;;;17.59;60.64;101940.13;5077885;28;20096;-78
2021/09/21 07:50:12;;;;;;;8.88;4.68;;;;;;;17.10;61.42;101942.53;5091699;28;20416;-75
2021/09/21 07:52:39;;;;;;;8.18;4.63;;;;;;;17.25;60.88;101954.84;5103604;28;20520;-76
2021/09/21 07:55:06;;;;;;;12.98;5.03;;;;;;;17.13;61.55;101953.00;5093535;28;20348;-76
2021/09/21 07:57:36;;;;;;;20.15;4.78;;;;;;;17.45;60.69;101961.50;5093607;28;20084;-76
2021/09/21 08:00:06;;;;;;;9.73;4.70;;;;;;;17.31;59.01;101961.59;5095036;28;20056;-76
2021/09/21 08:02:33;;;;;;;7.15;3.75;;;;;;;17.77;57.85;101967.38;5102533;28;20108;-76
2021/09/21 08:05:01;;;;;;;6.22;4.05;;;;;;;18.07;56.96;101967.09;5095138;28;20060;-77
2021/09/21 08:07:29;;;;;;;6.40;4.15;;;;;;;18.64;56.39;101965.72;5078572;28;20068;-78
2021/09/21 08:09:58;;;;;;;10.40;4.05;;;;;;;18.62;55.42;101970.34;5074736;28;20055;-77
2021/09/21 08:12:26;;;;;;;6.15;3.63;;;;;;;17.84;53.86;101973.16;5099106;28;20542;-75
2021/09/21 08:14:53;;;;;;;12.30;4.18;;;;;;;17.90;55.33;101976.22;5076371;28;20486;-77
2021/09/21 08:17:25;;;;;;;8.50;4.63;;;;;;;17.33;55.50;101984.47;5095030;28;20058;-77
2021/09/21 08:19:53;;;;;;;8.38;4.32;;;;;;;17.31;56.32;101983.72;5091214;28;20701;-75
2021/09/21 08:22:23;;;;;;;5.63;3.67;;;;;;;18.07;53.60;101979.56;5065386;28;20143;-79
2021/09/21 08:24:50;;;;;;;6.30;3.85;;;;;;;18.54;50.35;101976.22;5074381;27;20051;-78
2021/09/21 08:27:17;;;;;;;5.78;3.95;;;;;;;18.01;52.32;101971.97;5083174;28;20583;-76
2021/09/21 08:29:44;;;;;;;4.47;2.72;;;;;;;19.47;45.17;101957.88;5088751;28;20060;-76
2021/09/21 08:32:11;;;;;;;4.57;3.00;;;;;;;20.54;42.18;101968.34;5104719;28;20130;-77
2021/09/21 08:34:39;;;;;;;5.80;2.85;;;;;;;22.75;37.62;101955.91;5049109;28;20055;-79
2021/09/21 08:37:07;;;;;;;4.40;2.67;;;;;;;22.92;36.80;101965.16;5085312;28;20075;-77
2021/09/21 08:39:34;;;;;;;9.07;2.85;;;;;;;20.31;41.33;101964.78;5080515;28;20052;-77
2021/09/21 08:42:01;;;;;;;5.78;3.45;;;;;;;19.62;44.36;101956.75;5104753;28;20130;-78
2021/09/21 08:44:29;;;;;;;3.85;2.70;;;;;;;18.48;45.50;101963.31;5057036;28;20157;-78
2021/09/21 08:46:56;;;;;;;4.80;3.28;;;;;;;18.30;48.37;101959.28;5063347;28;20047;-77
2021/09/21 08:49:24;;;;;;;5.93;3.60;;;;;;;18.59;47.42;101952.72;5079346;28;20134;-75
2021/09/21 08:51:51;;;;;;;3.33;2.60;;;;;;;18.55;47.04;101958.38;5055041;28;20040;-76
2021/09/21 08:54:18;;;;;;;5.07;3.05;;;;;;;18.60;46.83;101964.28;5102155;27;20063;-75
2021/09/21 08:56:46;;;;;;;6.35;3.47;;;;;;;18.17;46.48;101961.97;5085117;27;20443;-76
2021/09/21 08:59:15;;;;;;;5.60;3.42;;;;;;;17.98;48.39;101958.88;5062999;28;20083;-78
2021/09/21 09:01:49;;;;;;;8.82;3.28;;;;;;;18.65;47.54;101951.47;5085578;28;20139;-76
2021/09/21 09:04:17;;;;;;;7.15;3.72;;;;;;;18.22;48.34;101963.34;5075796;28;20143;-76
2021/09/21 09:06:51;;;;;;;5.28;3.45;;;;;;;18.39;49.05;101967.50;5089119;28;20090;-78
2021/09/21 09:09:23;;;;;;;7.68;3.58;;;;;;;18.26;49.50;101961.31;5080680;28;20060;-77
2021/09/21 09:11:55;;;;;;;6.40;3.33;;;;;;;18.37;48.96;101955.22;5099287;28;20549;-79
2021/09/21 09:14:30;;;;;;;10.65;3.75;;;;;;;18.04;50.01;101959.28;5080070;28;20056;-78
2021/09/21 09:17:03;;;;;;;7.45;3.20;;;;;;;18.09;51.08;101965.16;5088451;28;20078;-79
2021/09/21 09:19:37;;;;;;;5.80;3.63;;;;;;;18.36;49.65;101964.19;5111289;27;20050;-78
2021/09/21 09:22:07;;;;;;;12.02;3.63;;;;;;;18.03;50.39;101965.59;5047921;28;20512;-81
2021/09/21 09:25:05;;;;;;;8.20;3.83;;;;;;;18.57;48.79;101953.81;5076618;27;20398;-80
2021/09/21 09:27:37;;;;;;;7.72;2.75;;;;;;;18.27;48.29;101960.34;5091901;28;20458;-78
2021/09/21 09:30:12;;;;;;;9.20;3.05;;;;;;;18.26;47.95;101968.47;5081154;28;20078;-79
2021/09/21 09:32:46;;;;;;;;;;;;;;;17.59;49.47;101958.78;5104638;27;20044;-79
2021/09/21 09:35:31;;;;;;;7.63;3.20;;;;;;;17.60;48.48;101963.13;5042601;28;20289;-78
2021/09/21 09:38:04;;;;;;;7.73;2.77;;;;;;;17.52;49.57;101968.16;5066548;28;20097;-78
2021/09/21 09:40:33;;;;;;;6.63;2.78;;;;;;;18.05;48.50;101966.31;5081019;28;20123;-79
2021/09/21 09:43:00;;;;;;;5.53;3.00;;;;;;;18.18;48.66;101972.50;5075439;28;20101;-79
2021/09/21 09:45:37;;;;;;;9.13;3.28;;;;;;;17.98;49.31;101964.22;5045020;28;20117;-78
2021/09/21 09:48:06;;;;;;;7.88;3.03;;;;;;;18.17;49.11;101961.97;5062465;28;20055;-79
2021/09/21 09:50:38;;;;;;;17.67;3.50;;;;;;;18.19;49.71;101955.56;5103387;28;20131;-79
2021/09/21 09:53:17;;;;;;;12.35;4.03;;;;;;;17.88;50.46;101958.66;5085849;28;20048;-79
2021/09/21 09:55:49;;;;;;;9.85;3.95;;;;;;;17.38;52.22;101953.09;5097238;28;20083;-80
2021/09/21 09:58:18;;;;;;;8.77;3.70;;;;;;;17.76;52.29;101952.34;5077145;28;20051;-81
2021/09/21 10:00:45;;;;;;;8.38;3.70;;;;;;;17.91;52.73;101947.78;5060271;28;20197;-79
2021/09/21 10:03:13;;;;;;;7.50;2.97;;;;;;;17.93;51.46;101949.38;5091961;28;20062;-77
2021/09/21 10:05:41;;;;;;;7.55;3.55;;;;;;;17.82;51.39;101951.91;5097681;27;20469;-79
2021/09/21 10:08:10;;;;;;;7.85;3.50;;;;;;;18.26;50.38;101953.31;5082354;28;20052;-81
2021/09/21 10:10:40;;;;;;;7.65;3.35;;;;;;;18.03;50.08;101946.09;5064925;28;20133;-77
2021/09/21 10:13:16;;;;;;;8.52;3.80;;;;;;;18.29;49.40;101938.94;5100875;28;20059;-79
2021/09/21 10:15:44;;;;;;;8.43;3.42;;;;;;;18.45;48.15;101948.38;5050984;28;20052;-80
2021/09/21 10:18:21;;;;;;;6.10;3.55;;;;;;;18.43;47.48;101942.31;5080373;28;20056;-79
2021/09/21 10:21:03;;;;;;;7.30;4.07;;;;;;;18.72;46.35;101939.41;5083287;28;20039;-78
2021/09/21 10:23:35;;;;;;;8.65;3.80;;;;;;;18.59;47.59;101942.06;5100552;27;20091;-80
2021/09/21 10:26:13;;;;;;;8.43;3.90;;;;;;;17.62;47.91;101947.94;5075038;28;20044;-81
2021/09/21 10:28:44;;;;;;;7.97;3.47;;;;;;;17.83;49.21;101950.97;5082230;28;20075;-79
2021/09/21 10:31:17;;;;;;;8.77;3.22;;;;;;;17.61;48.38;101948.03;5084169;28;20135;-78
2021/09/21 10:33:44;;;;;;;7.88;2.90;;;;;;;17.95;48.52;101941.28;5077662;28;20064;-80
2021/09/21 10:36:23;;;;;;;7.50;3.60;;;;;;;17.91;47.92;101943.28;5079797;28;20101;-79
2021/09/21 10:38:57;;;;;;;7.22;3.42;;;;;;;18.29;48.80;101953.13;5071369;28;20050;-77
2021/09/21 10:41:26;;;;;;;7.35;3.75;;;;;;;17.89;48.58;101945.22;5080894;28;20040;-79
2021/09/21 10:43:59;;;;;;;6.90;2.78;;;;;;;17.81;47.47;101944.03;5056838;28;20051;-78
2021/09/21 10:46:27;;;;;;;16.00;3.83;;;;;;;17.08;49.56;101944.47;5077781;28;20093;-77
2021/09/21 10:49:00;;;;;;;7.97;3.58;;;;;;;16.45;50.60;101951.97;5057685;28;20048;-80
2021/09/21 10:51:29;;;;;;;11.88;3.92;;;;;;;16.31;52.01;101962.59;5065212;28;20431;-79
2021/09/21 10:54:03;;;;;;;11.40;3.53;;;;;;;16.35;52.35;101958.81;5076195;28;20039;-79
2021/09/21 10:56:31;;;;;;;13.20;3.60;;;;;;;16.28;52.70;101965.44;5073449;28;20537;-76
2021/09/21 10:58:59;;;;;;;7.53;3.47;;;;;;;16.61;52.76;101962.47;5081847;27;20512;-81
2021/09/21 11:01:26;;;;;;;11.40;3.30;;;;;;;16.69;52.08;101965.50;5072576;28;20102;-79
2021/09/21 11:03:53;;;;;;;8.23;3.10;;;;;;;16.82;52.06;101964.75;5081948;28;20501;-79
2021/09/21 11:06:21;;;;;;;16.25;3.90;;;;;;;17.03;51.60;101962.53;5074645;28;20047;-80
2021/09/21 11:08:50;;;;;;;12.75;3.80;;;;;;;16.82;52.28;101978.06;5098640;28;20406;-79
2021/09/21 11:11:17;;;;;;;9.15;3.35;;;;;;;16.12;53.94;101980.59;5058683;28;20048;-79
2021/09/21 11:13:44;;;;;;;12.10;4.45;;;;;;;16.06;55.11;101989.78;5050948;28;20410;-80
2021/09/21 11:16:13;;;;;;;9.02;3.80;;;;;;;15.94;54.95;101987.91;5094866;28;20052;-79
2021/09/21 11:18:44;;;;;;;21.77;4.65;;;;;;;15.90;55.07;101981.06;5059500;28;20052;-81
2021/09/21 11:21:12;;;;;;;15.45;4.07;;;;;;;15.93;54.76;101991.47;5071444;28;20497;-78
2021/09/21 11:23:42;;;;;;;20.55;4.43;;;;;;;15.70;54.90;102003.47;5058319;28;20052;-79
2021/09/21 11:26:11;;;;;;;14.43;4.03;;;;;;;15.91;54.45;102001.34;5063842;28;20147;-79
2021/09/21 11:28:46;;;;;;;8.20;3.55;;;;;;;16.08;54.53;101984.41;5059001;28;20054;-78
2021/09/21 11:31:14;;;;;;;8.63;3.38;;;;;;;16.27;54.61;101981.47;5079463;28;20101;-79
2021/09/21 11:33:42;;;;;;;10.10;3.88;;;;;;;16.35;53.32;101989.84;5087812;28;20390;-79